sensor_id;sensor_type;location;lat;lon;timestamp;P1;durP1;ratioP1;P2;durP2;ratioP2
7295;SDS011;40758;54.038;11.684;2023-07-31T00:01:43;6.10;;;2.33;;
7295;SDS011;40758;54.038;11.684;2023-07-31T00:04:09;4.60;;;1.75;;
7295;SDS011;40758;54.038;11.684;2023-07-31T00:06:36;3.50;;;0.60;;
7295;SDS011;40758;54.038;11.684;2023-07-31T00:09:03;3.55;;;1.15;;
7295;SDS011;40758;54.038;11.684;2023-07-31T00:11:30;5.45;;;1.40;;
7295;SDS011;40758;54.038;11.684;2023-07-31T00:13:57;4.53;;;1.30;;
7295;SDS011;40758;54.038;11.684;2023-07-31T00:16:24;5.63;;;1.55;;
7295;SDS011;40758;54.038;11.684;2023-07-31T00:18:51;4.90;;;2.40;;
7295;SDS011;40758;54.038;11.684;2023-07-31T00:21:17;7.22;;;2.30;;
7295;SDS011;40758;54.038;11.684;2023-07-31T00:23:44;2.85;;;0.98;;
7295;SDS011;40758;54.038;11.684;2023-07-31T00:26:11;3.70;;;1.13;;
7295;SDS011;40758;54.038;11.684;2023-07-31T00:28:37;4.80;;;2.10;;
7295;SDS011;40758;54.038;11.684;2023-07-31T00:31:04;4.82;;;1.27;;
7295;SDS011;40758;54.038;11.684;2023-07-31T00:33:31;3.80;;;1.00;;
7295;SDS011;40758;54.038;11.684;2023-07-31T00:35:57;3.13;;;1.10;;
7295;SDS011;40758;54.038;11.684;2023-07-31T00:38:24;4.20;;;1.40;;
7295;SDS011;40758;54.038;11.684;2023-07-31T00:40:51;5.18;;;1.10;;
7295;SDS011;40758;54.038;11.684;2023-07-31T00:43:18;3.38;;;0.80;;
7295;SDS011;40758;54.038;11.684;2023-07-31T00:45:45;3.65;;;1.02;;
7295;SDS011;40758;54.038;11.684;2023-07-31T00:48:14;4.32;;;1.40;;
7295;SDS011;40758;54.038;11.684;2023-07-31T00:50:41;3.55;;;0.93;;
7295;SDS011;40758;54.038;11.684;2023-07-31T00:53:08;5.22;;;1.30;;
7295;SDS011;40758;54.038;11.684;2023-07-31T00:55:35;3.47;;;1.08;;
7295;SDS011;40758;54.038;11.684;2023-07-31T00:58:01;2.88;;;1.52;;
7295;SDS011;40758;54.038;11.684;2023-07-31T01:00:28;3.22;;;1.17;;
7295;SDS011;40758;54.038;11.684;2023-07-31T01:02:55;4.03;;;1.08;;
7295;SDS011;40758;54.038;11.684;2023-07-31T01:05:27;5.00;;;1.75;;
7295;SDS011;40758;54.038;11.684;2023-07-31T01:08:12;4.57;;;1.45;;
7295;SDS011;40758;54.038;11.684;2023-07-31T01:10:46;3.08;;;1.17;;
7295;SDS011;40758;54.038;11.684;2023-07-31T01:13:17;4.10;;;1.00;;
7295;SDS011;40758;54.038;11.684;2023-07-31T01:15:44;3.28;;;1.15;;
7295;SDS011;40758;54.038;11.684;2023-07-31T01:18:11;4.22;;;1.45;;
7295;SDS011;40758;54.038;11.684;2023-07-31T01:20:37;3.60;;;1.05;;
7295;SDS011;40758;54.038;11.684;2023-07-31T01:25:53;4.97;;;1.50;;
7295;SDS011;40758;54.038;11.684;2023-07-31T01:31:17;3.78;;;1.00;;
7295;SDS011;40758;54.038;11.684;2023-07-31T01:33:46;4.55;;;1.02;;
7295;SDS011;40758;54.038;11.684;2023-07-31T01:36:14;4.85;;;1.42;;
7295;SDS011;40758;54.038;11.684;2023-07-31T01:38:41;3.63;;;2.42;;
7295;SDS011;40758;54.038;11.684;2023-07-31T01:41:08;5.28;;;0.88;;
7295;SDS011;40758;54.038;11.684;2023-07-31T01:43:35;5.55;;;1.05;;
7295;SDS011;40758;54.038;11.684;2023-07-31T01:46:01;3.40;;;1.40;;
7295;SDS011;40758;54.038;11.684;2023-07-31T01:48:28;4.65;;;1.23;;
7295;SDS011;40758;54.038;11.684;2023-07-31T01:50:55;3.33;;;1.08;;
7295;SDS011;40758;54.038;11.684;2023-07-31T01:53:21;3.80;;;1.33;;
7295;SDS011;40758;54.038;11.684;2023-07-31T01:55:48;5.78;;;1.33;;
7295;SDS011;40758;54.038;11.684;2023-07-31T01:58:15;4.20;;;1.10;;
7295;SDS011;40758;54.038;11.684;2023-07-31T02:00:42;4.47;;;1.65;;
7295;SDS011;40758;54.038;11.684;2023-07-31T02:03:08;5.80;;;1.25;;
7295;SDS011;40758;54.038;11.684;2023-07-31T02:05:36;3.80;;;1.33;;
7295;SDS011;40758;54.038;11.684;2023-07-31T02:08:03;4.82;;;1.35;;
7295;SDS011;40758;54.038;11.684;2023-07-31T02:10:33;3.65;;;2.05;;
7295;SDS011;40758;54.038;11.684;2023-07-31T02:12:59;4.13;;;1.17;;
7295;SDS011;40758;54.038;11.684;2023-07-31T02:15:26;4.97;;;2.10;;
7295;SDS011;40758;54.038;11.684;2023-07-31T02:17:53;4.22;;;1.20;;
7295;SDS011;40758;54.038;11.684;2023-07-31T02:20:19;5.38;;;2.05;;
7295;SDS011;40758;54.038;11.684;2023-07-31T02:22:46;5.75;;;2.17;;
7295;SDS011;40758;54.038;11.684;2023-07-31T02:25:13;7.60;;;1.20;;
7295;SDS011;40758;54.038;11.684;2023-07-31T02:27:39;6.70;;;1.08;;
7295;SDS011;40758;54.038;11.684;2023-07-31T02:30:06;5.22;;;1.58;;
7295;SDS011;40758;54.038;11.684;2023-07-31T02:32:33;6.50;;;1.70;;
7295;SDS011;40758;54.038;11.684;2023-07-31T02:35:00;7.03;;;1.70;;
7295;SDS011;40758;54.038;11.684;2023-07-31T02:37:27;5.15;;;2.03;;
7295;SDS011;40758;54.038;11.684;2023-07-31T02:39:55;6.20;;;2.03;;
7295;SDS011;40758;54.038;11.684;2023-07-31T02:42:22;8.65;;;1.83;;
7295;SDS011;40758;54.038;11.684;2023-07-31T02:44:49;7.18;;;1.73;;
7295;SDS011;40758;54.038;11.684;2023-07-31T02:47:17;6.30;;;2.65;;
7295;SDS011;40758;54.038;11.684;2023-07-31T02:49:44;5.63;;;1.70;;
7295;SDS011;40758;54.038;11.684;2023-07-31T02:52:10;5.05;;;2.00;;
7295;SDS011;40758;54.038;11.684;2023-07-31T02:54:37;5.15;;;2.22;;
7295;SDS011;40758;54.038;11.684;2023-07-31T02:57:04;6.60;;;2.17;;
7295;SDS011;40758;54.038;11.684;2023-07-31T02:59:31;5.05;;;1.55;;
7295;SDS011;40758;54.038;11.684;2023-07-31T03:01:57;9.00;;;2.00;;
7295;SDS011;40758;54.038;11.684;2023-07-31T03:04:24;5.88;;;1.98;;
7295;SDS011;40758;54.038;11.684;2023-07-31T03:06:51;4.25;;;1.42;;
7295;SDS011;40758;54.038;11.684;2023-07-31T03:09:18;6.00;;;2.22;;
7295;SDS011;40758;54.038;11.684;2023-07-31T03:11:44;7.35;;;3.20;;
7295;SDS011;40758;54.038;11.684;2023-07-31T03:14:11;5.25;;;2.45;;
7295;SDS011;40758;54.038;11.684;2023-07-31T03:16:38;8.95;;;2.10;;
7295;SDS011;40758;54.038;11.684;2023-07-31T03:19:05;6.65;;;2.40;;
7295;SDS011;40758;54.038;11.684;2023-07-31T03:21:32;6.43;;;1.85;;
7295;SDS011;40758;54.038;11.684;2023-07-31T03:23:59;5.78;;;2.17;;
7295;SDS011;40758;54.038;11.684;2023-07-31T03:26:26;7.78;;;2.80;;
7295;SDS011;40758;54.038;11.684;2023-07-31T03:28:53;6.43;;;2.70;;
7295;SDS011;40758;54.038;11.684;2023-07-31T03:31:19;6.47;;;1.95;;
7295;SDS011;40758;54.038;11.684;2023-07-31T03:33:46;9.38;;;3.50;;
7295;SDS011;40758;54.038;11.684;2023-07-31T03:36:13;4.53;;;1.77;;
7295;SDS011;40758;54.038;11.684;2023-07-31T03:38:39;6.32;;;1.83;;
7295;SDS011;40758;54.038;11.684;2023-07-31T03:41:06;8.75;;;2.22;;
7295;SDS011;40758;54.038;11.684;2023-07-31T03:43:33;5.93;;;2.38;;
7295;SDS011;40758;54.038;11.684;2023-07-31T03:46:02;7.80;;;3.45;;
7295;SDS011;40758;54.038;11.684;2023-07-31T03:48:29;6.10;;;2.42;;
7295;SDS011;40758;54.038;11.684;2023-07-31T03:50:56;6.10;;;2.30;;
7295;SDS011;40758;54.038;11.684;2023-07-31T03:53:22;6.05;;;3.35;;
7295;SDS011;40758;54.038;11.684;2023-07-31T03:55:49;7.00;;;2.15;;
7295;SDS011;40758;54.038;11.684;2023-07-31T03:58:16;8.77;;;2.85;;
7295;SDS011;40758;54.038;11.684;2023-07-31T04:00:43;7.13;;;1.98;;
7295;SDS011;40758;54.038;11.684;2023-07-31T04:03:10;8.55;;;3.30;;
7295;SDS011;40758;54.038;11.684;2023-07-31T04:05:37;6.40;;;2.42;;
7295;SDS011;40758;54.038;11.684;2023-07-31T04:08:06;6.20;;;2.60;;
7295;SDS011;40758;54.038;11.684;2023-07-31T04:10:33;8.55;;;3.13;;
7295;SDS011;40758;54.038;11.684;2023-07-31T04:13:00;6.70;;;2.83;;
7295;SDS011;40758;54.038;11.684;2023-07-31T04:15:26;6.57;;;2.53;;
7295;SDS011;40758;54.038;11.684;2023-07-31T04:17:53;4.95;;;2.10;;
7295;SDS011;40758;54.038;11.684;2023-07-31T04:20:20;6.85;;;2.33;;
7295;SDS011;40758;54.038;11.684;2023-07-31T04:22:48;6.07;;;2.35;;
7295;SDS011;40758;54.038;11.684;2023-07-31T04:25:15;7.35;;;3.60;;
7295;SDS011;40758;54.038;11.684;2023-07-31T04:27:41;4.70;;;1.98;;
7295;SDS011;40758;54.038;11.684;2023-07-31T04:30:08;8.13;;;2.90;;
7295;SDS011;40758;54.038;11.684;2023-07-31T04:32:35;6.65;;;2.75;;
7295;SDS011;40758;54.038;11.684;2023-07-31T04:35:02;9.13;;;3.05;;
7295;SDS011;40758;54.038;11.684;2023-07-31T04:37:29;5.70;;;2.47;;
7295;SDS011;40758;54.038;11.684;2023-07-31T04:39:56;5.65;;;2.50;;
7295;SDS011;40758;54.038;11.684;2023-07-31T04:42:23;5.63;;;2.05;;
7295;SDS011;40758;54.038;11.684;2023-07-31T04:44:49;5.28;;;2.45;;
7295;SDS011;40758;54.038;11.684;2023-07-31T04:47:16;6.03;;;2.60;;
7295;SDS011;40758;54.038;11.684;2023-07-31T04:49:43;8.07;;;2.05;;
7295;SDS011;40758;54.038;11.684;2023-07-31T04:52:09;8.50;;;3.38;;
7295;SDS011;40758;54.038;11.684;2023-07-31T04:54:36;7.90;;;2.72;;
7295;SDS011;40758;54.038;11.684;2023-07-31T04:57:03;6.22;;;3.25;;
7295;SDS011;40758;54.038;11.684;2023-07-31T04:59:30;5.05;;;1.85;;
7295;SDS011;40758;54.038;11.684;2023-07-31T05:01:57;6.20;;;2.92;;
7295;SDS011;40758;54.038;11.684;2023-07-31T05:04:24;7.85;;;2.70;;
7295;SDS011;40758;54.038;11.684;2023-07-31T05:06:51;6.72;;;2.40;;
7295;SDS011;40758;54.038;11.684;2023-07-31T05:09:18;7.93;;;3.40;;
7295;SDS011;40758;54.038;11.684;2023-07-31T05:11:44;7.82;;;2.67;;
7295;SDS011;40758;54.038;11.684;2023-07-31T05:14:12;4.78;;;1.88;;
7295;SDS011;40758;54.038;11.684;2023-07-31T05:16:38;7.40;;;2.90;;
7295;SDS011;40758;54.038;11.684;2023-07-31T05:19:06;6.05;;;2.42;;
7295;SDS011;40758;54.038;11.684;2023-07-31T05:21:32;7.55;;;2.72;;
7295;SDS011;40758;54.038;11.684;2023-07-31T05:23:59;6.13;;;2.38;;
7295;SDS011;40758;54.038;11.684;2023-07-31T05:26:26;6.72;;;3.05;;
7295;SDS011;40758;54.038;11.684;2023-07-31T05:28:52;6.55;;;2.60;;
7295;SDS011;40758;54.038;11.684;2023-07-31T05:31:19;6.13;;;3.05;;
7295;SDS011;40758;54.038;11.684;2023-07-31T05:33:47;7.50;;;2.25;;
7295;SDS011;40758;54.038;11.684;2023-07-31T05:36:14;6.38;;;3.20;;
7295;SDS011;40758;54.038;11.684;2023-07-31T05:38:42;6.28;;;2.00;;
7295;SDS011;40758;54.038;11.684;2023-07-31T05:41:12;5.68;;;2.42;;
7295;SDS011;40758;54.038;11.684;2023-07-31T05:43:40;6.80;;;2.05;;
7295;SDS011;40758;54.038;11.684;2023-07-31T05:46:09;6.65;;;3.05;;
7295;SDS011;40758;54.038;11.684;2023-07-31T05:48:36;6.63;;;2.88;;
7295;SDS011;40758;54.038;11.684;2023-07-31T05:51:03;6.10;;;3.28;;
7295;SDS011;40758;54.038;11.684;2023-07-31T05:53:30;5.15;;;2.30;;
7295;SDS011;40758;54.038;11.684;2023-07-31T05:55:57;7.88;;;3.00;;
7295;SDS011;40758;54.038;11.684;2023-07-31T05:58:24;5.25;;;2.15;;
7295;SDS011;40758;54.038;11.684;2023-07-31T06:00:50;7.25;;;3.97;;
7295;SDS011;40758;54.038;11.684;2023-07-31T06:03:17;8.13;;;2.97;;
7295;SDS011;40758;54.038;11.684;2023-07-31T06:05:44;7.55;;;4.05;;
7295;SDS011;40758;54.038;11.684;2023-07-31T06:08:11;8.02;;;3.50;;
7295;SDS011;40758;54.038;11.684;2023-07-31T06:10:37;6.65;;;3.38;;
7295;SDS011;40758;54.038;11.684;2023-07-31T06:13:04;8.30;;;4.57;;
7295;SDS011;40758;54.038;11.684;2023-07-31T06:15:31;8.18;;;4.05;;
7295;SDS011;40758;54.038;11.684;2023-07-31T06:17:58;8.73;;;3.85;;
7295;SDS011;40758;54.038;11.684;2023-07-31T06:20:28;6.78;;;3.50;;
7295;SDS011;40758;54.038;11.684;2023-07-31T06:22:55;8.48;;;3.92;;
7295;SDS011;40758;54.038;11.684;2023-07-31T06:25:22;7.30;;;3.33;;
7295;SDS011;40758;54.038;11.684;2023-07-31T06:27:49;8.00;;;3.45;;
7295;SDS011;40758;54.038;11.684;2023-07-31T06:30:15;9.32;;;4.60;;
7295;SDS011;40758;54.038;11.684;2023-07-31T06:32:42;7.70;;;3.65;;
7295;SDS011;40758;54.038;11.684;2023-07-31T06:35:09;7.43;;;4.50;;
7295;SDS011;40758;54.038;11.684;2023-07-31T06:37:36;8.25;;;5.05;;
7295;SDS011;40758;54.038;11.684;2023-07-31T06:40:03;8.10;;;4.20;;
7295;SDS011;40758;54.038;11.684;2023-07-31T06:42:32;9.05;;;4.43;;
7295;SDS011;40758;54.038;11.684;2023-07-31T06:44:58;5.82;;;3.85;;
7295;SDS011;40758;54.038;11.684;2023-07-31T06:47:25;7.38;;;4.30;;
7295;SDS011;40758;54.038;11.684;2023-07-31T06:49:52;7.15;;;3.25;;
7295;SDS011;40758;54.038;11.684;2023-07-31T06:52:19;6.65;;;4.50;;
7295;SDS011;40758;54.038;11.684;2023-07-31T06:54:57;6.18;;;3.28;;
7295;SDS011;40758;54.038;11.684;2023-07-31T06:57:28;6.00;;;2.80;;
7295;SDS011;40758;54.038;11.684;2023-07-31T06:59:55;5.55;;;2.95;;
7295;SDS011;40758;54.038;11.684;2023-07-31T07:02:22;6.13;;;2.60;;
7295;SDS011;40758;54.038;11.684;2023-07-31T07:04:49;5.50;;;2.53;;
7295;SDS011;40758;54.038;11.684;2023-07-31T07:07:16;5.28;;;2.25;;
7295;SDS011;40758;54.038;11.684;2023-07-31T07:09:43;3.78;;;1.50;;
7295;SDS011;40758;54.038;11.684;2023-07-31T07:12:10;4.35;;;1.95;;
7295;SDS011;40758;54.038;11.684;2023-07-31T07:14:36;5.25;;;2.60;;
7295;SDS011;40758;54.038;11.684;2023-07-31T07:17:03;4.40;;;1.90;;
7295;SDS011;40758;54.038;11.684;2023-07-31T07:19:30;5.05;;;1.25;;
7295;SDS011;40758;54.038;11.684;2023-07-31T07:21:57;6.38;;;2.53;;
7295;SDS011;40758;54.038;11.684;2023-07-31T07:24:26;5.28;;;2.38;;
7295;SDS011;40758;54.038;11.684;2023-07-31T07:26:52;4.65;;;2.30;;
7295;SDS011;40758;54.038;11.684;2023-07-31T07:29:19;4.93;;;1.40;;
7295;SDS011;40758;54.038;11.684;2023-07-31T07:31:46;4.25;;;1.50;;
7295;SDS011;40758;54.038;11.684;2023-07-31T07:34:12;3.83;;;1.77;;
7295;SDS011;40758;54.038;11.684;2023-07-31T07:36:39;4.78;;;3.00;;
7295;SDS011;40758;54.038;11.684;2023-07-31T07:39:06;4.07;;;1.65;;
7295;SDS011;40758;54.038;11.684;2023-07-31T07:41:33;4.10;;;1.25;;
7295;SDS011;40758;54.038;11.684;2023-07-31T07:44:00;3.50;;;1.67;;
7295;SDS011;40758;54.038;11.684;2023-07-31T07:46:26;3.33;;;1.77;;
7295;SDS011;40758;54.038;11.684;2023-07-31T07:48:53;3.78;;;1.90;;
7295;SDS011;40758;54.038;11.684;2023-07-31T07:51:20;5.15;;;2.83;;
7295;SDS011;40758;54.038;11.684;2023-07-31T07:53:47;3.75;;;2.08;;
7295;SDS011;40758;54.038;11.684;2023-07-31T07:56:13;4.18;;;1.80;;
7295;SDS011;40758;54.038;11.684;2023-07-31T07:58:40;4.07;;;2.28;;
7295;SDS011;40758;54.038;11.684;2023-07-31T08:01:07;3.95;;;1.45;;
7295;SDS011;40758;54.038;11.684;2023-07-31T08:03:33;5.05;;;1.25;;
7295;SDS011;40758;54.038;11.684;2023-07-31T08:06:00;3.28;;;1.42;;
7295;SDS011;40758;54.038;11.684;2023-07-31T08:08:28;3.38;;;1.77;;
7295;SDS011;40758;54.038;11.684;2023-07-31T08:10:55;3.30;;;2.00;;
7295;SDS011;40758;54.038;11.684;2023-07-31T08:13:21;3.10;;;1.08;;
7295;SDS011;40758;54.038;11.684;2023-07-31T08:15:49;2.63;;;1.23;;
7295;SDS011;40758;54.038;11.684;2023-07-31T08:18:16;3.35;;;2.05;;
7295;SDS011;40758;54.038;11.684;2023-07-31T08:20:44;2.90;;;1.75;;
7295;SDS011;40758;54.038;11.684;2023-07-31T08:23:11;3.00;;;1.23;;
7295;SDS011;40758;54.038;11.684;2023-07-31T08:25:38;3.55;;;2.85;;
7295;SDS011;40758;54.038;11.684;2023-07-31T08:28:05;3.22;;;1.48;;
7295;SDS011;40758;54.038;11.684;2023-07-31T08:30:32;2.20;;;0.73;;
7295;SDS011;40758;54.038;11.684;2023-07-31T08:33:03;2.83;;;1.10;;
7295;SDS011;40758;54.038;11.684;2023-07-31T08:35:29;3.17;;;1.67;;
7295;SDS011;40758;54.038;11.684;2023-07-31T08:37:56;3.40;;;1.95;;
7295;SDS011;40758;54.038;11.684;2023-07-31T08:40:23;4.10;;;1.38;;
7295;SDS011;40758;54.038;11.684;2023-07-31T08:42:52;3.75;;;1.45;;
7295;SDS011;40758;54.038;11.684;2023-07-31T08:45:20;3.22;;;1.35;;
7295;SDS011;40758;54.038;11.684;2023-07-31T08:47:50;3.08;;;1.30;;
7295;SDS011;40758;54.038;11.684;2023-07-31T08:50:19;2.85;;;1.20;;
7295;SDS011;40758;54.038;11.684;2023-07-31T08:52:47;3.10;;;1.90;;
7295;SDS011;40758;54.038;11.684;2023-07-31T08:55:16;2.97;;;1.20;;
7295;SDS011;40758;54.038;11.684;2023-07-31T08:57:43;2.30;;;1.02;;
7295;SDS011;40758;54.038;11.684;2023-07-31T09:00:10;2.55;;;0.88;;
7295;SDS011;40758;54.038;11.684;2023-07-31T09:02:38;2.80;;;1.50;;
7295;SDS011;40758;54.038;11.684;2023-07-31T09:05:12;3.40;;;1.33;;
7295;SDS011;40758;54.038;11.684;2023-07-31T09:07:39;3.42;;;1.45;;
7295;SDS011;40758;54.038;11.684;2023-07-31T09:10:07;3.38;;;1.90;;
7295;SDS011;40758;54.038;11.684;2023-07-31T09:12:33;3.53;;;1.45;;
7295;SDS011;40758;54.038;11.684;2023-07-31T09:15:01;3.13;;;1.33;;
7295;SDS011;40758;54.038;11.684;2023-07-31T09:17:28;3.05;;;1.15;;
7295;SDS011;40758;54.038;11.684;2023-07-31T09:19:57;2.90;;;0.80;;
7295;SDS011;40758;54.038;11.684;2023-07-31T09:22:34;4.43;;;1.08;;
7295;SDS011;40758;54.038;11.684;2023-07-31T09:25:18;2.67;;;1.27;;
7295;SDS011;40758;54.038;11.684;2023-07-31T09:28:02;3.08;;;1.25;;
7295;SDS011;40758;54.038;11.684;2023-07-31T09:30:31;2.80;;;0.90;;
7295;SDS011;40758;54.038;11.684;2023-07-31T09:33:10;3.13;;;1.80;;
7295;SDS011;40758;54.038;11.684;2023-07-31T09:35:37;3.03;;;1.50;;
7295;SDS011;40758;54.038;11.684;2023-07-31T09:38:09;2.97;;;1.20;;
7295;SDS011;40758;54.038;11.684;2023-07-31T09:40:38;2.90;;;1.30;;
7295;SDS011;40758;54.038;11.684;2023-07-31T09:43:07;3.08;;;1.23;;
7295;SDS011;40758;54.038;11.684;2023-07-31T09:45:37;2.60;;;1.08;;
7295;SDS011;40758;54.038;11.684;2023-07-31T09:48:10;2.78;;;1.10;;
7295;SDS011;40758;54.038;11.684;2023-07-31T09:50:38;3.03;;;1.95;;
7295;SDS011;40758;54.038;11.684;2023-07-31T09:53:06;3.47;;;1.10;;
7295;SDS011;40758;54.038;11.684;2023-07-31T09:55:35;3.42;;;1.40;;
7295;SDS011;40758;54.038;11.684;2023-07-31T10:00:33;3.28;;;1.77;;
7295;SDS011;40758;54.038;11.684;2023-07-31T10:03:01;3.05;;;1.40;;
7295;SDS011;40758;54.038;11.684;2023-07-31T10:05:34;3.38;;;1.90;;
7295;SDS011;40758;54.038;11.684;2023-07-31T10:08:04;3.33;;;1.45;;
7295;SDS011;40758;54.038;11.684;2023-07-31T10:10:33;3.35;;;1.25;;
7295;SDS011;40758;54.038;11.684;2023-07-31T10:13:07;3.38;;;1.98;;
7295;SDS011;40758;54.038;11.684;2023-07-31T10:15:35;3.17;;;1.35;;
7295;SDS011;40758;54.038;11.684;2023-07-31T10:18:03;3.30;;;1.52;;
7295;SDS011;40758;54.038;11.684;2023-07-31T10:20:33;3.15;;;1.52;;
7295;SDS011;40758;54.038;11.684;2023-07-31T10:23:00;3.30;;;1.10;;
7295;SDS011;40758;54.038;11.684;2023-07-31T10:25:27;3.55;;;1.20;;
7295;SDS011;40758;54.038;11.684;2023-07-31T10:27:55;2.72;;;1.60;;
7295;SDS011;40758;54.038;11.684;2023-07-31T10:30:24;3.15;;;1.30;;
7295;SDS011;40758;54.038;11.684;2023-07-31T10:32:54;2.95;;;0.98;;
7295;SDS011;40758;54.038;11.684;2023-07-31T10:35:21;3.47;;;1.52;;
7295;SDS011;40758;54.038;11.684;2023-07-31T10:37:51;3.22;;;1.75;;
7295;SDS011;40758;54.038;11.684;2023-07-31T10:40:19;2.65;;;1.33;;
7295;SDS011;40758;54.038;11.684;2023-07-31T10:42:50;3.17;;;0.90;;
7295;SDS011;40758;54.038;11.684;2023-07-31T10:45:38;2.63;;;0.90;;
7295;SDS011;40758;54.038;11.684;2023-07-31T10:48:06;3.95;;;2.47;;
7295;SDS011;40758;54.038;11.684;2023-07-31T10:53:05;3.10;;;1.55;;
7295;SDS011;40758;54.038;11.684;2023-07-31T10:55:38;3.50;;;1.52;;
7295;SDS011;40758;54.038;11.684;2023-07-31T10:58:08;3.60;;;1.70;;
7295;SDS011;40758;54.038;11.684;2023-07-31T11:00:37;2.88;;;1.88;;
7295;SDS011;40758;54.038;11.684;2023-07-31T11:03:18;2.42;;;0.70;;
7295;SDS011;40758;54.038;11.684;2023-07-31T11:08:24;2.85;;;1.70;;
7295;SDS011;40758;54.038;11.684;2023-07-31T11:13:30;2.17;;;0.90;;
7295;SDS011;40758;54.038;11.684;2023-07-31T11:15:59;3.20;;;1.65;;
7295;SDS011;40758;54.038;11.684;2023-07-31T11:20:53;2.22;;;1.02;;
7295;SDS011;40758;54.038;11.684;2023-07-31T11:23:22;3.78;;;1.20;;
7295;SDS011;40758;54.038;11.684;2023-07-31T11:25:49;3.47;;;0.60;;
7295;SDS011;40758;54.038;11.684;2023-07-31T11:28:17;2.33;;;1.30;;
7295;SDS011;40758;54.038;11.684;2023-07-31T11:33:13;2.00;;;0.50;;
7295;SDS011;40758;54.038;11.684;2023-07-31T11:35:44;1.52;;;0.57;;
7295;SDS011;40758;54.038;11.684;2023-07-31T11:40:53;2.38;;;1.20;;
7295;SDS011;40758;54.038;11.684;2023-07-31T11:43:20;2.72;;;0.57;;
7295;SDS011;40758;54.038;11.684;2023-07-31T11:45:49;2.25;;;0.70;;
7295;SDS011;40758;54.038;11.684;2023-07-31T11:48:24;3.05;;;0.68;;
7295;SDS011;40758;54.038;11.684;2023-07-31T11:50:59;2.88;;;0.90;;
7295;SDS011;40758;54.038;11.684;2023-07-31T11:53:47;2.45;;;0.65;;
7295;SDS011;40758;54.038;11.684;2023-07-31T11:56:17;3.65;;;0.70;;
7295;SDS011;40758;54.038;11.684;2023-07-31T11:58:53;1.90;;;0.50;;
7295;SDS011;40758;54.038;11.684;2023-07-31T12:01:23;2.10;;;0.60;;
7295;SDS011;40758;54.038;11.684;2023-07-31T12:03:51;2.78;;;0.95;;
7295;SDS011;40758;54.038;11.684;2023-07-31T12:06:18;2.50;;;1.02;;
7295;SDS011;40758;54.038;11.684;2023-07-31T12:08:47;2.08;;;0.55;;
7295;SDS011;40758;54.038;11.684;2023-07-31T12:11:17;1.70;;;0.57;;
7295;SDS011;40758;54.038;11.684;2023-07-31T12:13:45;2.28;;;0.60;;
7295;SDS011;40758;54.038;11.684;2023-07-31T12:16:15;2.22;;;1.02;;
7295;SDS011;40758;54.038;11.684;2023-07-31T12:18:42;2.05;;;1.20;;
7295;SDS011;40758;54.038;11.684;2023-07-31T12:21:13;2.45;;;0.60;;
7295;SDS011;40758;54.038;11.684;2023-07-31T12:23:43;2.22;;;1.77;;
7295;SDS011;40758;54.038;11.684;2023-07-31T12:26:14;1.75;;;0.40;;
7295;SDS011;40758;54.038;11.684;2023-07-31T12:28:44;2.80;;;1.20;;
7295;SDS011;40758;54.038;11.684;2023-07-31T12:31:16;2.85;;;0.60;;
7295;SDS011;40758;54.038;11.684;2023-07-31T12:33:45;2.25;;;0.50;;
7295;SDS011;40758;54.038;11.684;2023-07-31T12:36:20;2.10;;;0.40;;
7295;SDS011;40758;54.038;11.684;2023-07-31T12:38:54;3.17;;;0.75;;
7295;SDS011;40758;54.038;11.684;2023-07-31T12:41:32;1.55;;;0.80;;
7295;SDS011;40758;54.038;11.684;2023-07-31T12:44:00;1.60;;;0.40;;
7295;SDS011;40758;54.038;11.684;2023-07-31T12:46:27;1.60;;;0.55;;
7295;SDS011;40758;54.038;11.684;2023-07-31T12:48:58;1.67;;;0.88;;
7295;SDS011;40758;54.038;11.684;2023-07-31T12:51:28;2.55;;;1.02;;
7295;SDS011;40758;54.038;11.684;2023-07-31T12:53:56;1.58;;;0.75;;
7295;SDS011;40758;54.038;11.684;2023-07-31T12:56:40;1.52;;;0.75;;
7295;SDS011;40758;54.038;11.684;2023-07-31T13:01:43;1.15;;;0.70;;
7295;SDS011;40758;54.038;11.684;2023-07-31T13:04:11;1.30;;;0.88;;
7295;SDS011;40758;54.038;11.684;2023-07-31T13:06:44;0.95;;;0.40;;
7295;SDS011;40758;54.038;11.684;2023-07-31T13:09:17;1.00;;;0.52;;
7295;SDS011;40758;54.038;11.684;2023-07-31T13:11:45;1.50;;;0.60;;
7295;SDS011;40758;54.038;11.684;2023-07-31T13:14:13;2.30;;;0.55;;
7295;SDS011;40758;54.038;11.684;2023-07-31T13:16:43;1.38;;;0.80;;
7295;SDS011;40758;54.038;11.684;2023-07-31T13:19:11;1.55;;;0.43;;
7295;SDS011;40758;54.038;11.684;2023-07-31T13:21:38;1.08;;;0.43;;
7295;SDS011;40758;54.038;11.684;2023-07-31T13:24:09;1.25;;;0.50;;
7295;SDS011;40758;54.038;11.684;2023-07-31T13:26:47;1.38;;;0.43;;
7295;SDS011;40758;54.038;11.684;2023-07-31T13:29:18;1.17;;;0.40;;
7295;SDS011;40758;54.038;11.684;2023-07-31T13:31:56;0.90;;;0.30;;
7295;SDS011;40758;54.038;11.684;2023-07-31T13:34:23;2.00;;;0.60;;
7295;SDS011;40758;54.038;11.684;2023-07-31T13:36:53;1.92;;;0.70;;
7295;SDS011;40758;54.038;11.684;2023-07-31T13:39:21;1.48;;;0.50;;
7295;SDS011;40758;54.038;11.684;2023-07-31T13:44:27;1.80;;;0.73;;
7295;SDS011;40758;54.038;11.684;2023-07-31T13:46:59;1.10;;;0.40;;
7295;SDS011;40758;54.038;11.684;2023-07-31T13:49:27;2.65;;;0.50;;
7295;SDS011;40758;54.038;11.684;2023-07-31T13:52:05;1.83;;;0.40;;
7295;SDS011;40758;54.038;11.684;2023-07-31T13:57:06;2.20;;;1.55;;
7295;SDS011;40758;54.038;11.684;2023-07-31T13:59:39;1.90;;;0.60;;
7295;SDS011;40758;54.038;11.684;2023-07-31T14:02:06;1.52;;;0.55;;
7295;SDS011;40758;54.038;11.684;2023-07-31T14:04:33;2.60;;;0.70;;
7295;SDS011;40758;54.038;11.684;2023-07-31T14:07:00;2.97;;;1.23;;
7295;SDS011;40758;54.038;11.684;2023-07-31T14:09:35;3.78;;;1.10;;
7295;SDS011;40758;54.038;11.684;2023-07-31T14:12:02;2.88;;;0.95;;
7295;SDS011;40758;54.038;11.684;2023-07-31T14:14:33;2.65;;;0.70;;
7295;SDS011;40758;54.038;11.684;2023-07-31T14:17:01;2.58;;;1.35;;
7295;SDS011;40758;54.038;11.684;2023-07-31T14:19:33;2.70;;;1.65;;
7295;SDS011;40758;54.038;11.684;2023-07-31T14:22:01;3.00;;;1.15;;
7295;SDS011;40758;54.038;11.684;2023-07-31T14:24:37;2.88;;;0.70;;
7295;SDS011;40758;54.038;11.684;2023-07-31T14:27:05;2.47;;;0.93;;
7295;SDS011;40758;54.038;11.684;2023-07-31T14:29:32;2.95;;;1.40;;
7295;SDS011;40758;54.038;11.684;2023-07-31T14:32:03;2.33;;;0.90;;
7295;SDS011;40758;54.038;11.684;2023-07-31T14:34:31;2.53;;;1.00;;
7295;SDS011;40758;54.038;11.684;2023-07-31T14:36:58;4.20;;;1.30;;
7295;SDS011;40758;54.038;11.684;2023-07-31T14:39:28;2.83;;;1.15;;
7295;SDS011;40758;54.038;11.684;2023-07-31T14:41:58;3.40;;;0.73;;
7295;SDS011;40758;54.038;11.684;2023-07-31T14:44:28;2.85;;;1.17;;
7295;SDS011;40758;54.038;11.684;2023-07-31T14:46:57;2.00;;;0.80;;
7295;SDS011;40758;54.038;11.684;2023-07-31T14:49:26;2.38;;;1.30;;
7295;SDS011;40758;54.038;11.684;2023-07-31T14:52:03;1.88;;;0.75;;
7295;SDS011;40758;54.038;11.684;2023-07-31T14:54:31;2.28;;;0.90;;
7295;SDS011;40758;54.038;11.684;2023-07-31T14:56:59;2.17;;;1.23;;
7295;SDS011;40758;54.038;11.684;2023-07-31T14:59:32;3.42;;;1.52;;
7295;SDS011;40758;54.038;11.684;2023-07-31T15:02:08;3.60;;;1.58;;
7295;SDS011;40758;54.038;11.684;2023-07-31T15:04:39;2.80;;;1.35;;
7295;SDS011;40758;54.038;11.684;2023-07-31T15:07:09;2.40;;;1.38;;
7295;SDS011;40758;54.038;11.684;2023-07-31T15:09:36;3.15;;;1.27;;
7295;SDS011;40758;54.038;11.684;2023-07-31T15:12:12;2.88;;;0.82;;
7295;SDS011;40758;54.038;11.684;2023-07-31T15:14:46;3.00;;;0.88;;
7295;SDS011;40758;54.038;11.684;2023-07-31T15:17:24;2.80;;;1.00;;
7295;SDS011;40758;54.038;11.684;2023-07-31T15:19:56;2.15;;;0.93;;
7295;SDS011;40758;54.038;11.684;2023-07-31T15:22:33;1.70;;;0.60;;
7295;SDS011;40758;54.038;11.684;2023-07-31T15:25:10;2.03;;;0.57;;
7295;SDS011;40758;54.038;11.684;2023-07-31T15:27:44;2.83;;;0.90;;